Accueil
METAR-TAF:

METAR-TAF

Aéroports :

Francfort-sur-le-Main, Allemagne

Aéroport de Francfort-sur-le-Main

latitude: 50-03N, longitude: 008-36E, altitude: 111 m

Observation

Le bulletin a été fait il y a 29 minutes, à 20:50 UTC
Vent 7 kt de ouest, variant entre sud et nord-ouest
Température 9°C
Humidité 46%
Pression 1013 hPa
Visibilité 10 km ou plus
Quelques nuages à une hauteur de 3200 ft
Nuages épars à une hauteur de 4200 ft
Nuages fragmentés à une hauteur de 11000 ft

METAR: EDDF 262050Z 26007KT 190V320 9999 FEW032 SCT042 BKN110 09/M02 Q1013 NOSIG

Heure: 23:19 (21:19 UTC)

Prévision

Le bulletin a été fait il y a 4 heures et 19 minutes, à 17:00 UTC
Prévision valable du 26 à 18 UTC au 27 à 24 UTC
Vent 5 kt de nord-est
Visibilité 10 km ou plus
Nuages épars à une hauteur de 4000 ft
Evoluant progressivement
du 26 à 18 UTC au 26 à 21 UTC
Vent 4 kt de nord/nord-ouest

TAF: EDDF 261700Z 2618/2724 04005KT 9999 SCT040 BECMG 2618/2621 33004KT

Observations et prévisions météorologiques de plus de 4000 aéroports (messages METAR et TAF).

Les stations disponibles sont représentées par des disques jaunes et rouges sur la carte.

Passer la souris dessus pour voir le nom de la station.

Cliquer dessus pour voir les observations et prévisions météorologiques.

Pour changer de carte: cliquez sur les boutons verts avec une croix noire pour zoomer, sur le bouton vert avec un tiret pour effectuer un zoom arrière, ou sur les flèches vertes pour les cartes adjacentes.


METAR-TAF: